Latest Weather Observations for Horn Island

IDQ60801

Issued at 8:32 am EST Sunday 5 July 2015 (issued every 30 minutes, with the page automatically refreshed every 10 minutes)

About weather observations | Map of weather stations | Latest weather observations for QLD | Other Formats
Station Details ID: 027058 Name: HORN ISLAND Lat: -10.58 Lon: 142.29 Height: 4.0 m
Data from the previous 72 hours. | See also: Recent months at Horn Island
Date/Time
EST
Temp
°C
App
Temp
°C
Dew
Point
Rel
Hum
%
Delta-T
°C
Wind Press
QNH
hPa
Press
MSL
hPa
Rain
since 9 am
mm
Dir
 
Spd
km/h
Gust
km/h
Spd
kts
Gust
kts
05/08:30am 25.6 25.0 20.6 74 3.3 ESE 24 35 13 19 1014.8 - 0.0
05/08:00am 24.7 25.0 20.4 77 2.8 SE 19 26 10 14 1014.5 - 0.0
05/07:30am 24.3 24.6 20.4 79 2.5 SE 19 24 10 13 1014.4 - 0.0
05/07:00am 24.3 24.7 20.6 80 2.4 ESE 19 28 10 15 1014.1 - 0.0
05/06:30am 24.1 24.6 20.8 82 2.2 SE 19 28 10 15 1013.6 - 0.0
05/06:00am 24.0 24.5 20.9 83 2.0 SE 19 24 10 13 1013.4 1013.4 0.0
05/05:30am 23.9 24.5 21.0 84 1.9 SE 19 26 10 14 1013.3 - 0.0
05/05:00am 23.9 24.6 20.4 81 2.3 SSE 17 24 9 13 1013.1 - 0.0
05/04:30am 24.0 24.5 20.9 83 2.0 SE 19 26 10 14 1013.0 - 0.0
05/04:00am 23.9 24.4 20.8 83 2.0 SE 19 26 10 14 1012.9 - 0.0
05/03:30am 24.0 24.1 19.9 78 2.6 SE 19 26 10 14 1012.8 - 0.0
05/03:00am 23.9 24.0 20.4 81 2.3 SE 20 30 11 16 1012.9 1012.9 0.0
05/02:30am 23.8 24.5 20.5 82 2.1 ESE 17 24 9 13 1013.1 - 0.0
05/02:00am 24.4 23.5 19.9 76 2.9 ESE 24 33 13 18 1013.2 - 0.0
05/01:30am 23.9 23.9 20.2 80 2.4 ESE 20 32 11 17 1013.6 - 0.0
05/01:00am 24.1 24.0 20.8 82 2.2 ESE 22 30 12 16 1013.9 - 0.0
05/12:30am 24.4 24.5 20.3 78 2.7 SE 20 28 11 15 1013.8 - 0.0
05/12:00am 24.3 24.5 20.2 78 2.7 ESE 19 28 10 15 1014.0 1014.0 0.0
 
Date/Time
EST
Temp
°C
App
Temp
°C
Dew
Point
Rel
Hum
%
Delta-T
°C
Wind Press
QNH
hPa
Press
MSL
hPa
Rain
since 9 am
mm
Dir
 
Spd
km/h
Gust
km/h
Spd
kts
Gust
kts
04/11:30pm 24.3 24.6 20.4 79 2.5 SE 19 26 10 14 1014.2 - 0.0
04/11:00pm 24.3 24.4 20.4 79 2.5 ESE 20 28 11 15 1014.3 - 0.0
04/10:30pm 24.6 24.4 20.5 78 2.7 ESE 22 30 12 16 1014.3 - 0.0
04/10:00pm 24.7 23.9 20.8 79 2.6 ESE 26 35 14 19 1014.4 - 0.0
04/09:30pm 24.6 24.3 20.3 77 2.8 ESE 22 32 12 17 1014.4 - 0.0
04/09:00pm 24.7 24.3 20.2 76 2.9 ESE 22 32 12 17 1014.1 1014.1 0.0
04/08:30pm 24.6 24.7 20.3 77 2.8 ESE 20 32 11 17 1013.8 - 0.0
04/08:00pm 25.0 23.8 20.0 74 3.2 ESE 26 35 14 19 1013.5 - 0.0
04/07:30pm 24.8 22.9 19.4 72 3.5 ESE 28 39 15 21 1013.2 - 0.0
04/07:00pm 24.9 23.9 20.4 76 2.9 ESE 26 35 14 19 1012.9 - 0.0
04/06:30pm 25.0 23.5 20.3 75 3.1 ESE 28 37 15 20 1012.8 - 0.0
04/06:00pm 25.2 23.5 20.5 75 3.1 ESE 30 39 16 21 1012.4 1012.4 0.0
04/05:30pm 26.1 25.1 19.7 68 4.1 ESE 24 35 13 19 1012.0 - 0.0
04/05:00pm 26.3 24.4 19.4 66 4.4 ESE 28 35 15 19 1011.8 - 0.0
04/04:30pm 26.8 25.1 19.7 65 4.6 ESE 28 39 15 21 1011.7 - 0.0
04/04:00pm 27.0 25.3 19.9 65 4.6 ESE 28 39 15 21 1011.6 - 0.0
04/03:55pm 27.2 25.7 20.3 66 4.5 E 28 46 15 25 1011.6 - 0.0
04/03:30pm 27.0 24.7 20.1 66 4.5 ESE 32 41 17 22 1011.6 - 0.0
04/03:00pm 27.4 25.1 20.2 65 4.7 E 32 43 17 23 1011.6 1011.6 0.0
04/02:30pm 27.2 24.7 19.8 64 4.8 E 32 44 17 24 1011.7 - 0.0
04/02:00pm 27.6 26.0 20.7 66 4.6 E 30 41 16 22 1012.0 - 0.0
04/01:30pm 27.9 26.2 19.9 61 5.2 E 28 35 15 19 1012.5 - 0.0
04/01:00pm 27.2 25.0 19.5 62 5.0 E 30 37 16 20 1012.9 - 0.0
04/12:30pm 27.9 27.3 20.5 64 4.9 E 24 32 13 17 1013.1 - 0.0
04/12:00pm 27.6 25.7 20.2 64 4.8 E 30 41 16 22 1013.5 1013.5 0.0
04/11:30am 28.0 26.6 21.1 66 4.6 E 30 39 16 21 1013.7 - 0.0
04/11:00am 27.1 25.6 20.2 66 4.5 E 28 41 15 22 1014.1 - 0.0
04/10:30am 26.4 26.2 20.5 70 3.9 E 22 30 12 16 1014.3 - 0.0
04/10:00am 25.9 26.3 19.8 69 4.0 SE 17 24 9 13 1014.6 - 0.0
04/09:30am 25.6 26.8 20.6 74 3.3 SE 15 22 8 12 1014.7 - 0.0
04/09:00am 24.3 25.2 20.0 77 2.8 SSE 15 20 8 11 1014.7 1014.7 0.0
04/08:30am 23.6 24.8 19.9 80 2.4 SSE 13 19 7 10 1014.6 - 0.0
04/08:00am 23.2 25.0 20.3 84 1.9 SSE 11 15 6 8 1014.3 - 0.0
04/07:30am 22.4 24.6 20.3 88 1.4 SSE 9 11 5 6 1014.1 - 0.0
04/07:00am 21.9 23.8 19.8 88 1.3 SSE 9 11 5 6 1013.9 - 0.0
04/06:30am 22.1 23.5 19.6 86 1.6 SSE 11 15 6 8 1013.8 - 0.0
04/06:00am 22.1 23.3 19.1 83 1.9 SSE 11 15 6 8 1013.7 1013.7 0.0
04/05:30am 22.0 23.5 19.0 83 1.9 SE 9 13 5 7 1013.5 - 0.0
04/05:00am 22.5 23.7 19.1 81 2.2 SE 11 13 6 7 1013.3 - 0.0
04/04:30am 22.4 23.3 19.2 82 2.0 ESE 13 17 7 9 1013.1 - 0.0
04/04:00am 22.2 23.5 19.2 83 1.9 SE 11 17 6 9 1013.0 - 0.0
04/03:30am 22.1 22.3 18.5 80 2.3 SE 15 20 8 11 1013.1 - 0.0
04/03:00am 22.3 21.6 18.3 78 2.5 SE 19 26 10 14 1013.3 1013.3 0.0
04/02:30am 22.2 23.2 18.6 80 2.3 SSE 11 15 6 8 1013.4 - 0.0
04/02:00am 22.4 22.4 18.2 77 2.6 SSE 15 20 8 11 1013.6 - 0.0
04/01:30am 22.4 22.4 18.2 77 2.6 SSE 15 20 8 11 1013.9 - 0.0
04/01:00am 22.7 22.4 18.3 76 2.8 SSE 17 24 9 13 1014.4 - 0.0
04/12:30am 23.0 23.5 18.3 75 2.9 SSE 13 20 7 11 1014.6 - 0.0
04/12:00am 23.3 23.6 18.0 72 3.3 SE 13 17 7 9 1014.7 1014.7 0.0
 
Date/Time
EST
Temp
°C
App
Temp
°C
Dew
Point
Rel
Hum
%
Delta-T
°C
Wind Press
QNH
hPa
Press
MSL
hPa
Rain
since 9 am
mm
Dir
 
Spd
km/h
Gust
km/h
Spd
kts
Gust
kts
03/11:30pm 23.7 23.7 18.1 71 3.5 SE 15 20 8 11 1014.8 - 0.0
03/11:00pm 23.4 24.0 17.6 70 3.6 SE 11 15 6 8 1015.0 - 0.0
03/10:30pm 23.3 23.4 17.5 70 3.6 SE 13 17 7 9 1015.1 - 0.0
03/10:00pm 23.5 23.5 17.3 68 3.8 SE 13 17 7 9 1015.1 - 0.0
03/09:30pm 23.9 23.0 16.9 65 4.3 SE 17 20 9 11 1014.9 - 0.0
03/09:00pm 24.1 23.1 16.6 63 4.6 SE 17 24 9 13 1014.7 1014.7 0.0
03/08:30pm 24.2 23.4 17.2 65 4.3 SE 17 24 9 13 1014.5 - 0.0
03/08:00pm 24.4 23.0 17.1 63 4.5 ESE 20 28 11 15 1014.2 - 0.0
03/07:30pm 24.6 23.1 17.6 65 4.4 ESE 22 30 12 16 1013.8 - 0.0
03/07:00pm 24.7 23.2 17.7 65 4.4 ESE 22 30 12 16 1013.5 - 0.0
03/06:30pm 25.0 23.4 17.5 63 4.7 ESE 22 30 12 16 1013.2 - 0.0
03/06:00pm 25.3 23.6 17.2 61 5.0 ESE 22 32 12 17 1013.0 1013.0 0.0
03/05:30pm 25.9 23.9 17.5 59 5.3 ESE 24 32 13 17 1012.7 - 0.0
03/05:00pm 26.5 24.5 17.3 57 5.8 E 24 35 13 19 1012.3 - 0.0
03/04:30pm 26.6 24.6 18.2 60 5.3 E 26 37 14 20 1012.0 - 0.0
03/04:00pm 26.8 24.0 16.4 53 6.4 E 26 35 14 19 1011.9 - 0.0
03/03:30pm 27.3 25.2 18.0 56 5.9 E 26 39 14 21 1012.0 - 0.0
03/03:00pm 27.5 24.7 18.2 57 5.9 E 30 41 16 22 1012.0 1012.0 0.0
03/02:30pm 27.6 25.6 19.1 59 5.5 E 28 37 15 20 1012.4 - 0.0
03/02:00pm 27.6 25.0 18.6 58 5.8 E 30 41 16 22 1012.7 - 0.0
03/01:30pm 27.4 25.2 18.7 59 5.6 E 28 37 15 20 1013.1 - 0.0
03/01:00pm 27.8 26.1 19.8 61 5.2 ESE 28 37 15 20 1013.5 - 0.0
03/12:30pm 27.6 25.5 18.9 59 5.6 E 28 39 15 21 1013.9 - 0.0
03/12:00pm 27.6 25.2 19.1 59 5.5 ESE 30 39 16 21 1014.3 1014.3 0.0
03/11:30am 27.1 25.1 19.2 62 5.1 ESE 28 39 15 21 1014.8 - 0.0
03/11:00am 27.6 25.7 19.4 61 5.3 E 28 37 15 20 1015.0 - 0.0
03/10:30am 27.2 26.0 19.3 62 5.1 ESE 24 37 13 20 1015.3 - 0.0
03/10:00am 26.8 24.7 18.9 62 5.1 ESE 28 35 15 19 1015.6 - 0.0
03/09:30am 26.3 26.1 19.7 67 4.3 ESE 20 28 11 15 1015.8 - 0.0
03/09:00am 25.9 24.8 18.6 64 4.6 ESE 22 33 12 18 1015.8 1015.8 0.2
03/08:30am 25.3 25.4 19.2 69 3.9 SE 17 26 9 14 1015.5 - 0.2
03/08:00am 24.6 24.8 19.4 73 3.3 SE 17 20 9 11 1015.2 - 0.2
03/07:30am 23.8 24.7 19.3 76 2.9 SE 13 20 7 11 1014.7 - 0.2
03/07:00am 23.7 24.3 19.4 77 2.8 SE 15 22 8 12 1014.3 - 0.2
03/06:30am 23.7 23.3 19.0 75 3.0 ESE 19 26 10 14 1014.1 - 0.2
03/06:00am 23.7 23.7 19.0 75 3.0 SE 17 24 9 13 1014.0 1014.0 0.2
03/05:30am 23.7 24.3 19.4 77 2.8 SE 15 26 8 14 1013.9 - 0.2
03/05:00am 24.0 23.5 19.1 74 3.1 SE 20 28 11 15 1013.8 - 0.2
03/04:30am 24.0 23.3 18.6 72 3.4 SE 20 30 11 16 1013.8 - 0.2
03/04:00am 24.2 23.1 18.6 71 3.5 ESE 22 37 12 20 1013.9 - 0.2
03/03:30am 24.3 22.7 19.1 73 3.3 ESE 26 33 14 18 1014.0 - 0.2
03/03:00am 24.4 23.8 19.7 75 3.0 ESE 22 30 12 16 1014.3 1014.3 0.2
03/02:30am 24.2 23.8 19.3 74 3.1 ESE 20 30 11 16 1014.5 - 0.2
03/02:00am 24.2 23.7 19.1 73 3.3 ESE 20 32 11 17 1014.7 - 0.2
03/01:30am 24.1 23.4 18.7 72 3.4 ESE 20 32 11 17 1015.0 - 0.2
03/01:00am 24.1 23.7 19.0 73 3.2 ESE 19 28 10 15 1015.3 - 0.2
03/12:30am 24.4 23.9 19.2 73 3.3 SE 20 32 11 17 1015.5 - 0.2
03/12:00am 24.5 22.8 18.9 71 3.6 SE 26 35 14 19 1015.7 1015.7 0.2
 
Date/Time
EST
Temp
°C
App
Temp
°C
Dew
Point
Rel
Hum
%
Delta-T
°C
Wind Press
QNH
hPa
Press
MSL
hPa
Rain
since 9 am
mm
Dir
 
Spd
km/h
Gust
km/h
Spd
kts
Gust
kts
02/11:30pm 24.4 23.8 18.8 71 3.6 ESE 20 32 11 17 1015.8 - 0.2
02/11:00pm 24.7 23.3 18.9 70 3.7 ESE 24 32 13 17 1016.0 - 0.2
02/10:30pm 24.8 23.7 19.4 72 3.5 ESE 24 33 13 18 1016.2 - 0.2
02/10:00pm 24.9 23.7 19.3 71 3.6 ESE 24 33 13 18 1016.3 - 0.2
02/09:30pm 24.8 24.5 19.6 73 3.3 ESE 20 28 11 15 1016.4 - 0.2
02/09:00pm 24.8 23.9 19.8 74 3.2 ESE 24 35 13 19 1016.1 1016.1 0.2
02/08:30pm 24.9 24.2 20.2 75 3.1 ESE 24 30 13 16 1015.8 - 0.2
02/08:00pm 25.0 23.8 20.0 74 3.2 ESE 26 35 14 19 1015.5 - 0.2
02/07:30pm 25.1 24.2 19.9 73 3.4 ESE 24 35 13 19 1015.0 - 0.2
02/07:00pm 25.1 24.0 19.5 71 3.6 ESE 24 35 13 19 1014.7 - 0.2
02/06:30pm 25.3 24.4 19.9 72 3.5 ESE 24 39 13 21 1014.4 - 0.2
02/06:00pm 25.7 23.7 20.0 71 3.7 ESE 30 41 16 22 1014.2 1014.2 0.2
02/05:30pm 25.9 24.4 19.5 68 4.1 ESE 26 41 14 22 1013.9 - 0.2
02/05:14pm 26.5 24.1 19.1 64 4.8 ESE 30 48 16 26 1013.8 - 0.2
02/05:00pm 26.7 24.0 19.3 64 4.8 ESE 32 41 17 22 1013.8 - 0.2
02/04:30pm 27.0 24.2 19.4 63 4.9 ESE 33 43 18 23 1013.6 - 0.2
02/04:00pm 27.2 24.2 19.0 61 5.3 ESE 33 46 18 25 1013.6 - 0.2
02/03:30pm 27.5 23.9 19.3 61 5.3 ESE 37 48 20 26 1013.5 - 0.2
02/03:00pm 27.4 23.9 18.7 59 5.6 ESE 35 50 19 27 1013.6 1013.6 0.2
02/02:30pm 27.8 24.7 18.8 58 5.8 ESE 33 44 18 24 1014.0 - 0.2
02/02:00pm 27.5 24.6 19.3 61 5.3 ESE 33 43 18 23 1014.2 - 0.2
02/01:30pm 28.3 25.8 19.8 60 5.5 ESE 32 43 17 23 1014.5 - 0.2
02/01:00pm 28.3 26.1 20.3 62 5.3 ESE 32 46 17 25 1014.9 - 0.0
02/12:30pm 27.5 25.0 19.8 63 5.0 ESE 32 43 17 23 1015.4 - 0.0
02/12:00pm 27.2 24.6 20.0 64 4.7 ESE 33 44 18 24 1015.7 1015.7 0.0
02/11:30am 27.5 25.0 20.1 64 4.8 ESE 33 46 18 25 1016.0 - 0.0
02/11:00am 27.6 25.2 20.4 65 4.7 ESE 33 46 18 25 1016.1 - 0.0
02/10:30am 27.2 25.0 20.3 66 4.5 ESE 32 48 17 26 1016.3 - 0.0
02/10:00am 26.4 23.8 20.0 68 4.2 SE 33 43 18 23 1016.6 - 0.0
02/09:30am 26.4 24.2 20.7 71 3.7 ESE 33 46 18 25 1016.8 - 0.0
02/09:00am 25.9 25.5 20.9 74 3.3 SE 24 33 13 18 1016.9 1016.9 0.8

Other Formats:

Comma delimited format used in spreadsheet applications
http://www.bom.gov.au/fwo/IDQ60801/IDQ60801.94174.axf

JavaScript Object Notation format (JSON) in row-major order
http://www.bom.gov.au/fwo/IDQ60801/IDQ60801.94174.json